This is the latest recevied weather packets stored in our database for station/object KN4MGS. If no packets are shown the sender has not sent any weather packets the latest 10 day(s).
| Time | Temp. | Humidity | Pressure | Rain* | Wind** | Luminosity | Snow |
|---|---|---|---|---|---|---|---|
| 1777933012 | 25° C | 36% | 1016.9 hPa | 0 mm | - | 109 W/m² | - |
| 1777932709 | 25.56° C | 36% | 1017.1 hPa | 0 mm | - | 138 W/m² | - |
| 1777932405 | 25.56° C | 36% | 1017 hPa | 0 mm | - | 173 W/m² | - |
| 1777932103 | 25.56° C | 37% | 1017.3 hPa | 0 mm | - | 246 W/m² | - |
| 1777931799 | 25.56° C | 35% | 1017.1 hPa | 0 mm | - | 155 W/m² | - |
| 1777931496 | 26.11° C | 34% | 1017.1 hPa | 0 mm | - | 200 W/m² | - |
| 1777931192 | 25.56° C | 34% | 1017.1 hPa | 0 mm | - | 238 W/m² | - |
| 1777930889 | 26.11° C | 33% | 1017.3 hPa | 0 mm | - | 224 W/m² | - |
| 1777930585 | 26.11° C | 34% | 1017.2 hPa | 0 mm | - | 339 W/m² | - |
| 1777930282 | 26.11° C | 32% | 1017.1 hPa | 0 mm | - | 301 W/m² | - |
| 1777929978 | 26.67° C | 31% | 1017.2 hPa | 0 mm | - | 376 W/m² | - |
| 1777929675 | 26.67° C | 33% | 1017.1 hPa | 0 mm | - | 347 W/m² | - |
| 1777929373 | 26.67° C | 34% | 1017 hPa | 0 mm | - | 385 W/m² | - |
| 1777929069 | 27.22° C | 32% | 1017.1 hPa | 0 mm | - | 408 W/m² | - |
| 1777928767 | 27.22° C | 34% | 1017.3 hPa | 0 mm | - | 390 W/m² | - |
| 1777928463 | 26.67° C | 33% | 1017.4 hPa | 0 mm | - | 449 W/m² | - |
| 1777928161 | 26.67° C | 34% | 1017.2 hPa | 0 mm | - | 379 W/m² | - |
| 1777927858 | 26.67° C | 32% | 1017.2 hPa | 0 mm | - | 388 W/m² | - |
| 1777927556 | 26.67° C | 35% | 1017.5 hPa | 0 mm | - | 443 W/m² | - |
| 1777927255 | 26.67° C | 35% | 1017.5 hPa | 0 mm | - | 405 W/m² | - |
| 1777926953 | 26.67° C | 34% | 1017.4 hPa | 0 mm | - | 394 W/m² | - |
| 1777926650 | 27.22° C | 36% | 1017.6 hPa | 0 mm | - | 511 W/m² | - |
| 1777926345 | 26.67° C | 35% | 1017.5 hPa | 0 mm | - | 434 W/m² | - |
| 1777926043 | 26.67° C | 33% | 1017.8 hPa | 0 mm | - | 542 W/m² | - |
| 1777925739 | 26.67° C | 33% | 1017.7 hPa | 0 mm | - | 531 W/m² | - |
* Rain latest hour (hover to see other rain measurements)
** Current wind speed in m/s (hover to see current wind gust speed)